Time;durP1;ratioP1;P1;durP2;ratioP2;P2;SDS_P1;SDS_P2;PMS_P1;PMS_P2;Temp;Humidity;BMP_temperature;BMP_pressure;BME280_temperature;BME280_humidity;BME280_pressure;Samples;Min_cycle;Max_cycle;Signal;HPM_P1;HPM_P2
2021/07/29 00:00:13;;;;;;;;;21.00;18.00;;;;;;;;3570122;39;111863;-83
2021/07/29 00:02:41;;;;;;;;;21.67;19.00;;;;;;;;3569866;39;112746;-83
2021/07/29 00:05:08;;;;;;;;;20.33;20.33;;;;;;;;3570709;39;114029;-83
2021/07/29 00:07:35;;;;;;;;;21.33;19.00;;;;;;;;3572432;39;111910;-82
2021/07/29 00:10:01;;;;;;;;;24.33;20.00;;;;;;;;3569651;39;115736;-83
2021/07/29 00:12:28;;;;;;;;;21.00;19.33;;;;;;;;3563295;39;111958;-83
2021/07/29 00:14:55;;;;;;;;;19.33;17.67;;;;;;;;3560539;39;113278;-83
2021/07/29 00:19:03;;;;;;;;;17.33;16.67;;;;;;;;3560439;39;114130;-82
2021/07/29 00:20:18;;;;;;;;;23.33;22.00;;;;;;;;3560072;39;111867;-82
2021/07/29 00:22:48;;;;;;;;;22.67;18.67;;;;;;;;3559362;39;113502;-82
2021/07/29 00:25:15;;;;;;;;;22.00;20.67;;;;;;;;3559876;39;113912;-82
2021/07/29 00:27:42;;;;;;;;;21.67;17.67;;;;;;;;3559479;39;112210;-82
2021/07/29 00:30:09;;;;;;;;;20.33;19.00;;;;;;;;3561242;39;113447;-82
2021/07/29 00:32:36;;;;;;;;;23.00;21.75;;;;;;;;3559457;39;111999;-82
2021/07/29 00:35:03;;;;;;;;;24.00;19.00;;;;;;;;3559780;39;113280;-83
2021/07/29 00:37:31;;;;;;;;;22.00;20.75;;;;;;;;3558427;39;114722;-81
2021/07/29 00:39:58;;;;;;;;;20.67;20.33;;;;;;;;3560056;39;112424;-82
2021/07/29 00:42:24;;;;;;;;;19.00;19.00;;;;;;;;3558660;39;113672;-81
2021/07/29 00:44:51;;;;;;;;;19.00;17.00;;;;;;;;3558015;39;114997;-82
2021/07/29 00:47:18;;;;;;;;;20.33;20.00;;;;;;;;3560299;39;112079;-82
2021/07/29 00:49:45;;;;;;;;;21.67;20.67;;;;;;;;3559112;39;113294;-83
2021/07/29 00:52:12;;;;;;;;;20.00;18.50;;;;;;;;3561956;39;112127;-81
2021/07/29 00:54:40;;;;;;;;;19.67;19.33;;;;;;;;3559640;39;113606;-82
2021/07/29 00:57:09;;;;;;;;;21.50;20.25;;;;;;;;3558770;39;113981;-82
2021/07/29 00:59:36;;;;;;;;;18.25;18.25;;;;;;;;3559468;39;111934;-82
2021/07/29 01:02:02;;;;;;;;;19.25;18.25;;;;;;;;3558332;39;113262;-84
2021/07/29 01:04:29;;;;;;;;;21.00;20.00;;;;;;;;3559519;39;113856;-83
2021/07/29 01:06:55;;;;;;;;;17.75;17.75;;;;;;;;3558896;39;112244;-83
2021/07/29 01:09:22;;;;;;;;;22.50;19.50;;;;;;;;3556513;39;113401;-84
2021/07/29 01:11:50;;;;;;;;;22.75;21.25;;;;;;;;3562225;39;113478;-84
2021/07/29 01:14:17;;;;;;;;;19.25;18.25;;;;;;;;3558503;39;113293;-83
2021/07/29 01:16:44;;;;;;;;;19.00;19.00;;;;;;;;3559304;39;114136;-84
2021/07/29 01:19:11;;;;;;;;;21.25;21.00;;;;;;;;3559070;39;111870;-84
2021/07/29 01:21:39;;;;;;;;;20.75;19.75;;;;;;;;3559531;39;113135;-84
2021/07/29 01:24:06;;;;;;;;;22.50;20.50;;;;;;;;3557424;39;114780;-85
2021/07/29 01:26:32;;;;;;;;;19.00;18.75;;;;;;;;3559799;39;112034;-84
2021/07/29 01:29:01;;;;;;;;;22.50;20.00;;;;;;;;3558291;39;113378;-83
2021/07/29 01:31:27;;;;;;;;;24.00;22.25;;;;;;;;3558262;39;114612;-82
2021/07/29 01:33:54;;;;;;;;;25.50;22.75;;;;;;;;3562915;39;111829;-84
2021/07/29 01:36:21;;;;;;;;;19.00;19.00;;;;;;;;3556185;39;114026;-84
2021/07/29 01:38:49;;;;;;;;;20.75;19.50;;;;;;;;3559978;39;112025;-84
2021/07/29 01:41:15;;;;;;;;;22.00;21.00;;;;;;;;3558565;39;113795;-83
2021/07/29 01:43:42;;;;;;;;;18.75;16.50;;;;;;;;3560119;39;113638;-82
2021/07/29 01:46:08;;;;;;;;;20.75;19.50;;;;;;;;3559121;39;112216;-83
2021/07/29 01:48:35;;;;;;;;;21.00;20.50;;;;;;;;3558144;39;113307;-83
2021/07/29 01:51:02;;;;;;;;;21.00;18.25;;;;;;;;3559018;39;114364;-83
2021/07/29 01:53:28;;;;;;;;;21.75;18.25;;;;;;;;3558535;39;111817;-83
2021/07/29 01:55:56;;;;;;;;;18.75;18.00;;;;;;;;3562187;39;113761;-83
2021/07/29 01:58:23;;;;;;;;;22.50;21.25;;;;;;;;3558336;39;111901;-83
2021/07/29 02:00:50;;;;;;;;;22.75;20.25;;;;;;;;3559882;39;113225;-83
2021/07/29 02:03:17;;;;;;;;;19.00;18.00;;;;;;;;3557960;39;113946;-83
2021/07/29 02:05:43;;;;;;;;;18.50;18.50;;;;;;;;3559233;39;111874;-84
2021/07/29 02:08:10;;;;;;;;;20.00;18.25;;;;;;;;3558776;39;113375;-85
2021/07/29 02:10:39;;;;;;;;;16.50;16.50;;;;;;;;3558679;39;113920;-84
2021/07/29 02:13:07;;;;;;;;;17.50;16.00;;;;;;;;3558955;39;111891;-80
2021/07/29 02:15:34;;;;;;;;;21.00;20.75;;;;;;;;3558684;39;113304;-80
2021/07/29 02:18:02;;;;;;;;;21.75;20.25;;;;;;;;3561504;39;113908;-80
2021/07/29 02:20:29;;;;;;;;;18.75;18.25;;;;;;;;3558324;39;113783;-80
2021/07/29 02:22:55;;;;;;;;;20.25;20.00;;;;;;;;3559428;39;114041;-81
2021/07/29 02:25:22;;;;;;;;;21.50;18.75;;;;;;;;3560055;39;111840;-79
2021/07/29 02:27:48;;;;;;;;;18.00;16.25;;;;;;;;3558082;39;113601;-80
2021/07/29 02:30:16;;;;;;;;;17.50;16.50;;;;;;;;3559104;39;114083;-80
2021/07/29 02:32:44;;;;;;;;;19.25;18.50;;;;;;;;3558440;39;112300;-80
2021/07/29 02:35:11;;;;;;;;;21.75;18.50;;;;;;;;3559079;39;113227;-81
2021/07/29 02:37:37;;;;;;;;;16.00;14.00;;;;;;;;3558482;39;113912;-81
2021/07/29 02:40:04;;;;;;;;;20.50;19.25;;;;;;;;3561035;39;112144;-81
2021/07/29 02:42:31;;;;;;;;;16.25;16.25;;;;;;;;3558769;39;113859;-81
2021/07/29 02:44:58;;;;;;;;;20.25;18.25;;;;;;;;3557969;39;111896;-80
2021/07/29 02:47:26;;;;;;;;;22.00;21.00;;;;;;;;3559622;39;113699;-81
2021/07/29 02:49:52;;;;;;;;;21.50;19.50;;;;;;;;3555393;39;114031;-81
2021/07/29 02:52:19;;;;;;;;;20.00;18.75;;;;;;;;3559633;39;112597;-81
2021/07/29 02:54:46;;;;;;;;;17.50;16.75;;;;;;;;3558069;39;113265;-81
2021/07/29 02:57:12;;;;;;;;;15.50;14.75;;;;;;;;3558408;39;113953;-80
2021/07/29 02:59:39;;;;;;;;;22.75;20.00;;;;;;;;3561156;39;111741;-80
2021/07/29 03:02:06;;;;;;;;;19.50;17.75;;;;;;;;3557857;39;114460;-80
2021/07/29 03:04:34;;;;;;;;;18.75;18.25;;;;;;;;3558907;39;112143;-81
2021/07/29 03:07:00;;;;;;;;;22.75;21.25;;;;;;;;3557962;39;113726;-81
2021/07/29 03:09:27;;;;;;;;;24.00;22.00;;;;;;;;3558616;39;113895;-80
2021/07/29 03:11:53;;;;;;;;;21.75;19.50;;;;;;;;3557798;39;112424;-81
2021/07/29 03:14:20;;;;;;;;;21.50;20.25;;;;;;;;3557706;39;113293;-81
2021/07/29 03:16:46;;;;;;;;;19.75;18.25;;;;;;;;3558731;39;113929;-81
2021/07/29 03:19:13;;;;;;;;;21.25;20.00;;;;;;;;3557849;39;111989;-81
2021/07/29 03:21:41;;;;;;;;;22.25;19.00;;;;;;;;3560986;39;113210;-80
2021/07/29 03:24:07;;;;;;;;;17.75;17.25;;;;;;;;3558205;39;111922;-80
2021/07/29 03:26:34;;;;;;;;;19.00;19.00;;;;;;;;3559380;39;113313;-82
2021/07/29 03:29:01;;;;;;;;;18.00;18.00;;;;;;;;3559515;39;113930;-82
2021/07/29 03:31:27;;;;;;;;;20.00;20.00;;;;;;;;3559337;39;111788;-82
2021/07/29 03:33:54;;;;;;;;;20.75;20.00;;;;;;;;3560580;39;113340;-80
2021/07/29 03:36:21;;;;;;;;;22.25;20.75;;;;;;;;3558503;39;113868;-80
2021/07/29 03:38:49;;;;;;;;;21.25;19.75;;;;;;;;3560380;39;112274;-80
2021/07/29 03:41:15;;;;;;;;;21.00;20.00;;;;;;;;3559269;39;113459;-80
2021/07/29 03:43:42;;;;;;;;;21.25;20.75;;;;;;;;3562357;39;113929;-79
2021/07/29 03:46:09;;;;;;;;;20.00;17.75;;;;;;;;3559500;39;114034;-80
2021/07/29 03:48:36;;;;;;;;;23.50;22.00;;;;;;;;3559256;39;114072;-78
2021/07/29 03:51:02;;;;;;;;;20.25;18.50;;;;;;;;3559722;39;111890;-75
2021/07/29 03:53:29;;;;;;;;;23.25;20.00;;;;;;;;3559293;39;113316;-82
2021/07/29 03:55:57;;;;;;;;;22.75;19.50;;;;;;;;3559745;39;114003;-78
2021/07/29 03:58:23;;;;;;;;;20.00;19.50;;;;;;;;3558627;39;112216;-78
2021/07/29 04:00:50;;;;;;;;;19.00;19.00;;;;;;;;3560431;39;113393;-78
2021/07/29 04:03:16;;;;;;;;;18.50;18.25;;;;;;;;3558385;39;113925;-79
2021/07/29 04:05:43;;;;;;;;;21.25;19.00;;;;;;;;3562808;39;112108;-79
2021/07/29 04:08:10;;;;;;;;;19.75;19.00;;;;;;;;3558959;39;113956;-79
2021/07/29 04:10:37;;;;;;;;;20.75;20.75;;;;;;;;3559702;39;112036;-79
2021/07/29 04:13:05;;;;;;;;;20.00;20.00;;;;;;;;3559569;39;113413;-79
2021/07/29 04:15:31;;;;;;;;;21.00;20.50;;;;;;;;3558789;39;113898;-80
2021/07/29 04:17:58;;;;;;;;;27.00;23.00;;;;;;;;3559996;39;113071;-79
2021/07/29 04:20:25;;;;;;;;;19.75;17.50;;;;;;;;3558639;39;113306;-80
2021/07/29 04:22:51;;;;;;;;;23.25;21.50;;;;;;;;3560174;39;114500;-79
2021/07/29 04:25:18;;;;;;;;;19.00;18.50;;;;;;;;3556639;39;112130;-78
2021/07/29 04:27:44;;;;;;;;;18.75;18.75;;;;;;;;3562302;39;114110;-77
2021/07/29 04:30:13;;;;;;;;;22.50;21.50;;;;;;;;3558846;39;111795;-78
2021/07/29 04:32:40;;;;;;;;;21.25;19.25;;;;;;;;3559694;39;113348;-78
2021/07/29 04:35:07;;;;;;;;;20.75;20.75;;;;;;;;3558749;39;113813;-76
2021/07/29 04:37:33;;;;;;;;;19.50;19.50;;;;;;;;3559254;39;112011;-78
2021/07/29 04:40:00;;;;;;;;;23.75;22.25;;;;;;;;3559514;39;113199;-78
2021/07/29 04:42:27;;;;;;;;;23.25;21.25;;;;;;;;3558238;39;114383;-78
2021/07/29 04:44:54;;;;;;;;;21.00;19.50;;;;;;;;3559999;39;112086;-78
2021/07/29 04:47:21;;;;;;;;;21.50;20.25;;;;;;;;3558371;39;113364;-79
2021/07/29 04:49:51;;;;;;;;;21.00;20.25;;;;;;;;3558796;39;113916;-79
2021/07/29 04:52:18;;;;;;;;;22.50;22.50;;;;;;;;3555924;39;113454;-79
2021/07/29 04:54:44;;;;;;;;;21.25;19.75;;;;;;;;3558127;39;113980;-78
2021/07/29 04:57:11;;;;;;;;;22.00;20.25;;;;;;;;3559339;39;111806;-79
2021/07/29 04:59:40;;;;;;;;;22.25;21.00;;;;;;;;3558984;39;113530;-78
2021/07/29 05:02:06;;;;;;;;;20.75;18.00;;;;;;;;3558434;39;114505;-78
2021/07/29 05:04:35;;;;;;;;;21.25;21.25;;;;;;;;3559562;39;112003;-79
2021/07/29 05:07:01;;;;;;;;;24.75;21.75;;;;;;;;3559853;39;113496;-80
2021/07/29 05:09:28;;;;;;;;;20.50;18.25;;;;;;;;3562934;39;115529;-81
2021/07/29 05:11:54;;;;;;;;;21.00;21.00;;;;;;;;3560960;39;113343;-81
2021/07/29 05:14:21;;;;;;;;;19.75;19.00;;;;;;;;3558438;39;114174;-79
2021/07/29 05:16:48;;;;;;;;;23.50;19.50;;;;;;;;3559318;39;112086;-79
2021/07/29 05:19:15;;;;;;;;;21.75;21.75;;;;;;;;3560812;39;114105;-80
2021/07/29 05:21:43;;;;;;;;;33.50;30.50;;;;;;;;3559033;39;114169;-79
2021/07/29 05:24:12;;;;;;;;;25.50;23.00;;;;;;;;3560125;39;112565;-78
2021/07/29 05:26:38;;;;;;;;;20.00;16.50;;;;;;;;3558707;39;113343;-80
2021/07/29 05:29:05;;;;;;;;;24.75;22.50;;;;;;;;3559417;39;114097;-80
2021/07/29 05:31:32;;;;;;;;;20.00;19.75;;;;;;;;3562563;39;111931;-80
2021/07/29 05:33:59;;;;;;;;;23.50;21.25;;;;;;;;3559599;39;113783;-79
2021/07/29 05:36:25;;;;;;;;;22.00;20.75;;;;;;;;3558954;39;111812;-80
2021/07/29 05:38:53;;;;;;;;;23.50;23.00;;;;;;;;3559003;39;113412;-80
2021/07/29 05:41:20;;;;;;;;;25.25;21.75;;;;;;;;3558331;39;114287;-79
2021/07/29 05:43:46;;;;;;;;;20.75;20.50;;;;;;;;3560652;39;112006;-78
2021/07/29 05:46:14;;;;;;;;;26.50;23.00;;;;;;;;3559332;39;113840;-78
2021/07/29 05:48:41;;;;;;;;;19.00;19.00;;;;;;;;3559489;39;114624;-77
2021/07/29 05:51:08;;;;;;;;;19.25;19.00;;;;;;;;3559013;39;111766;-78
2021/07/29 05:53:35;;;;;;;;;25.00;21.25;;;;;;;;3561869;39;112926;-78
2021/07/29 05:56:03;;;;;;;;;27.25;22.50;;;;;;;;3559755;39;111952;-78
2021/07/29 05:58:29;;;;;;;;;23.75;22.00;;;;;;;;3559648;39;113542;-78
2021/07/29 06:00:56;;;;;;;;;23.00;22.50;;;;;;;;3559476;39;113955;-78
2021/07/29 06:03:23;;;;;;;;;22.25;20.50;;;;;;;;3558888;39;111889;-78
2021/07/29 06:05:51;;;;;;;;;20.00;19.75;;;;;;;;3560144;39;113215;-78
2021/07/29 06:08:18;;;;;;;;;22.75;20.50;;;;;;;;3555616;39;114087;-78
2021/07/29 06:10:44;;;;;;;;;24.25;24.25;;;;;;;;3558576;39;112369;-82
2021/07/29 06:13:15;;;;;;;;;23.00;22.50;;;;;;;;3558051;39;114405;-76
2021/07/29 06:15:42;;;;;;;;;23.25;22.75;;;;;;;;3557294;39;114026;-78
2021/07/29 06:18:11;;;;;;;;;21.25;20.50;;;;;;;;3558256;39;113231;-78
2021/07/29 06:20:38;;;;;;;;;22.00;20.75;;;;;;;;3558213;39;113938;-78
2021/07/29 06:23:04;;;;;;;;;22.75;21.25;;;;;;;;3558660;39;111898;-78
2021/07/29 06:25:31;;;;;;;;;23.00;21.00;;;;;;;;3558854;39;113240;-77
2021/07/29 06:27:58;;;;;;;;;30.75;28.50;;;;;;;;3558814;39;113734;-81
2021/07/29 06:30:26;;;;;;;;;24.00;23.25;;;;;;;;3558449;39;112632;-84
2021/07/29 06:32:52;;;;;;;;;23.75;23.75;;;;;;;;3558615;39;113201;-82
2021/07/29 06:35:19;;;;;;;;;24.00;24.00;;;;;;;;3557524;39;113920;-83
2021/07/29 06:37:45;;;;;;;;;37.00;31.50;;;;;;;;3562689;39;111849;-78
2021/07/29 06:40:12;;;;;;;;;27.75;25.50;;;;;;;;3557574;39;113915;-86
2021/07/29 06:42:39;;;;;;;;;37.50;33.00;;;;;;;;3559328;39;112508;-83
2021/07/29 06:45:06;;;;;;;;;40.75;32.50;;;;;;;;3558411;39;112754;-83
2021/07/29 06:47:34;;;;;;;;;25.00;25.00;;;;;;;;3557454;39;114340;-80
2021/07/29 06:50:01;;;;;;;;;33.00;30.25;;;;;;;;3558672;39;112037;-82
2021/07/29 06:52:27;;;;;;;;;29.00;27.25;;;;;;;;3559486;39;113293;-85
2021/07/29 06:54:54;;;;;;;;;32.25;30.00;;;;;;;;3557540;39;113856;-83
2021/07/29 06:57:20;;;;;;;;;38.50;33.25;;;;;;;;3559874;39;112056;-83
2021/07/29 06:59:47;;;;;;;;;36.50;32.50;;;;;;;;3556647;39;113455;-83
2021/07/29 07:02:14;;;;;;;;;29.75;28.50;;;;;;;;3560591;39;112042;-78
2021/07/29 07:04:42;;;;;;;;;26.00;24.00;;;;;;;;3559554;39;113281;-80
2021/07/29 07:07:13;;;;;;;;;29.00;28.75;;;;;;;;3559737;39;114551;-81
2021/07/29 07:09:39;;;;;;;;;26.75;25.50;;;;;;;;3559341;39;112745;-80
2021/07/29 07:14:30;;;;;;;;;31.75;28.50;;;;;;;;3543149;39;1577790;-77
2021/07/29 21:56:22;;;;;;;;;22.00;18.25;;;;;;;;3545460;39;1459758;-80
2021/07/29 21:58:49;;;;;;;;;18.00;16.00;;;;;;;;3576378;39;114378;-81
2021/07/29 22:01:15;;;;;;;;;17.00;17.00;;;;;;;;3578311;39;113037;-81
2021/07/29 22:03:42;;;;;;;;;14.00;14.00;;;;;;;;3577301;39;112397;-81
2021/07/29 22:06:09;;;;;;;;;17.67;15.67;;;;;;;;3577739;39;113978;-81
2021/07/29 22:08:35;;;;;;;;;16.33;14.67;;;;;;;;3576489;39;111879;-81
2021/07/29 22:11:02;;;;;;;;;17.00;16.67;;;;;;;;3578620;39;113513;-81
2021/07/29 22:13:30;;;;;;;;;14.33;12.67;;;;;;;;3577408;39;114203;-81
2021/07/29 22:15:56;;;;;;;;;15.33;13.33;;;;;;;;3578837;39;111876;-79
2021/07/29 22:18:23;;;;;;;;;14.33;13.33;;;;;;;;3576803;39;112814;-79
2021/07/29 22:20:52;;;;;;;;;14.67;13.33;;;;;;;;3576986;39;112022;-80
2021/07/29 22:23:19;;;;;;;;;21.33;15.00;;;;;;;;3577341;39;113334;-80
2021/07/29 22:25:45;;;;;;;;;15.33;13.67;;;;;;;;3575936;39;113861;-79
2021/07/29 22:28:12;;;;;;;;;15.67;15.33;;;;;;;;3576642;39;112401;-80
2021/07/29 22:30:40;;;;;;;;;16.33;15.33;;;;;;;;3578320;39;113266;-80
2021/07/29 22:33:07;;;;;;;;;19.33;17.33;;;;;;;;3575837;39;113988;-80
2021/07/29 22:35:33;;;;;;;;;16.00;15.67;;;;;;;;3577883;39;111935;-80
2021/07/29 22:38:00;;;;;;;;;20.00;17.33;;;;;;;;3578923;39;113567;-81
2021/07/29 22:40:27;;;;;;;;;15.33;14.00;;;;;;;;3577463;39;112001;-80
2021/07/29 22:42:53;;;;;;;;;13.00;13.00;;;;;;;;3577102;39;113178;-80
2021/07/29 22:45:20;;;;;;;;;15.00;15.00;;;;;;;;3576066;39;113950;-81
2021/07/29 22:47:48;;;;;;;;;14.67;14.67;;;;;;;;3577652;39;112007;-80
2021/07/29 22:50:14;;;;;;;;;15.00;13.00;;;;;;;;3576564;39;113439;-80
2021/07/29 22:52:41;;;;;;;;;17.00;17.00;;;;;;;;3577544;39;113884;-81
2021/07/29 22:55:08;;;;;;;;;16.33;16.33;;;;;;;;3576544;39;112537;-82
2021/07/29 22:57:37;;;;;;;;;17.67;15.67;;;;;;;;3578650;39;113350;-81
2021/07/29 23:00:06;;;;;;;;;15.67;13.67;;;;;;;;3578480;39;113947;-80
2021/07/29 23:02:33;;;;;;;;;13.67;13.00;;;;;;;;3577930;39;113140;-80
2021/07/29 23:05:01;;;;;;;;;16.33;15.00;;;;;;;;3574038;39;113656;-79
2021/07/29 23:07:28;;;;;;;;;13.67;13.67;;;;;;;;3569984;39;112384;-79
2021/07/29 23:09:55;;;;;;;;;16.00;15.00;;;;;;;;3569727;39;113373;-80
2021/07/29 23:12:21;;;;;;;;;16.33;16.00;;;;;;;;3571098;39;113934;-80
2021/07/29 23:14:48;;;;;;;;;14.67;14.33;;;;;;;;3569871;39;113071;-81
2021/07/29 23:17:14;;;;;;;;;13.67;12.33;;;;;;;;3570970;39;113256;-81
2021/07/29 23:19:41;;;;;;;;;15.00;14.00;;;;;;;;3569058;39;114125;-81
2021/07/29 23:22:11;;;;;;;;;15.33;14.00;;;;;;;;3574046;39;111876;-81
2021/07/29 23:24:51;;;;;;;;;14.67;14.67;;;;;;;;3568950;39;113806;-81
2021/07/29 23:30:02;;;;;;;;;14.00;14.00;;;;;;;;3569815;39;111993;-81
2021/07/29 23:32:28;;;;;;;;;14.00;12.33;;;;;;;;3570070;39;113793;-81
2021/07/29 23:34:55;;;;;;;;;13.33;13.33;;;;;;;;3569944;39;111967;-81
2021/07/29 23:37:23;;;;;;;;;16.33;13.00;;;;;;;;3569567;39;113271;-80
2021/07/29 23:39:49;;;;;;;;;13.00;13.00;;;;;;;;3569622;39;113543;-80
2021/07/29 23:42:16;;;;;;;;;16.00;15.00;;;;;;;;3570384;39;111952;-80
2021/07/29 23:44:43;;;;;;;;;14.00;12.67;;;;;;;;3572172;39;113275;-81
2021/07/29 23:47:09;;;;;;;;;15.33;14.00;;;;;;;;3571447;39;112028;-80
2021/07/29 23:49:36;;;;;;;;;13.67;13.67;;;;;;;;3569286;39;113457;-79
2021/07/29 23:52:02;;;;;;;;;14.00;12.67;;;;;;;;3569321;39;113609;-81
2021/07/29 23:54:30;;;;;;;;;13.00;13.00;;;;;;;;3569414;39;114097;-80
2021/07/29 23:56:57;;;;;;;;;17.00;16.00;;;;;;;;3568774;39;113535;-80
2021/07/29 23:59:24;;;;;;;;;13.00;13.00;;;;;;;;3569782;39;113695;-80
